Time;durP1;ratioP1;P1;durP2;ratioP2;P2;SDS_P1;SDS_P2;PMS_P1;PMS_P2;Temp;Humidity;BMP_temperature;BMP_pressure;BME280_temperature;BME280_humidity;BME280_pressure;Samples;Min_cycle;Max_cycle;Signal;HPM_P1;HPM_P2
2022/01/07 00:00:28;;;;;;;1.73;0.57;;;21.60;38.00;;;;;;5036629;28;20652;-56
2022/01/07 00:03:12;;;;;;;4.35;0.57;;;21.40;38.20;;;;;;5039951;28;20037;-58
2022/01/07 00:05:39;;;;;;;1.27;0.30;;;21.20;38.40;;;;;;5032230;28;20051;-56
2022/01/07 00:08:06;;;;;;;3.15;1.05;;;21.10;38.70;;;;;;5034199;28;20052;-58
2022/01/07 00:10:34;;;;;;;3.72;0.75;;;20.90;38.90;;;;;;5035069;28;20048;-58
2022/01/07 00:13:01;;;;;;;3.50;0.60;;;20.80;39.20;;;;;;5054209;28;20041;-58
2022/01/07 00:15:28;;;;;;;4.53;0.20;;;20.70;39.40;;;;;;5035319;28;20471;-57
2022/01/07 00:17:56;;;;;;;0.88;0.20;;;20.60;39.70;;;;;;5034237;28;20607;-56
2022/01/07 00:20:23;;;;;;;1.00;0.52;;;20.50;40.00;;;;;;5030850;28;20045;-57
2022/01/07 00:22:50;;;;;;;1.77;0.73;;;20.40;40.20;;;;;;5032377;28;20042;-54
2022/01/07 00:25:17;;;;;;;3.25;0.63;;;20.30;40.40;;;;;;5032425;28;20582;-56
2022/01/07 00:27:46;;;;;;;0.95;0.43;;;20.20;40.60;;;;;;5035052;28;20112;-57
2022/01/07 00:30:14;;;;;;;1.27;0.38;;;20.10;41.00;;;;;;5037088;28;20045;-56
2022/01/07 00:32:42;;;;;;;5.40;0.32;;;20.00;41.00;;;;;;5042581;28;20052;-57
2022/01/07 00:35:10;;;;;;;3.03;0.40;;;19.90;41.10;;;;;;5029745;28;20041;-58
2022/01/07 00:37:38;;;;;;;2.67;0.32;;;19.90;41.40;;;;;;5031910;28;20045;-56
2022/01/07 00:40:06;;;;;;;3.08;0.38;;;19.80;41.50;;;;;;5045766;28;20040;-60
2022/01/07 00:42:34;;;;;;;2.67;0.30;;;19.70;41.70;;;;;;5034080;28;20104;-57
2022/01/07 00:45:02;;;;;;;0.77;0.35;;;19.60;41.80;;;;;;5034909;28;20057;-60
2022/01/07 00:47:29;;;;;;;1.67;0.30;;;19.60;42.00;;;;;;5032037;28;20047;-57
2022/01/07 00:49:58;;;;;;;0.20;0.10;;;19.50;42.10;;;;;;5042928;28;20532;-58
2022/01/07 00:52:25;;;;;;;3.10;0.45;;;19.50;42.30;;;;;;5032019;28;20139;-59
2022/01/07 00:54:52;;;;;;;1.35;0.30;;;19.40;42.40;;;;;;5039534;28;20525;-58
2022/01/07 00:57:19;;;;;;;2.65;0.20;;;19.40;42.60;;;;;;5034970;28;20037;-58
2022/01/07 00:59:46;;;;;;;3.20;0.32;;;19.30;42.70;;;;;;5034170;28;20045;-58
2022/01/07 01:02:15;;;;;;;1.00;0.30;;;19.30;42.90;;;;;;5040892;28;20122;-57
2022/01/07 01:04:43;;;;;;;1.90;0.22;;;19.20;43.00;;;;;;5036092;28;20069;-54
2022/01/07 01:07:10;;;;;;;2.15;0.30;;;19.20;43.10;;;;;;5034874;28;20057;-56
2022/01/07 01:09:37;;;;;;;0.95;0.15;;;19.10;43.20;;;;;;5035984;28;20048;-52
2022/01/07 01:12:05;;;;;;;2.85;0.20;;;19.10;43.30;;;;;;5038461;28;20037;-55
2022/01/07 01:14:32;;;;;;;2.05;0.30;;;19.00;43.40;;;;;;5035564;28;20087;-55
2022/01/07 01:16:59;;;;;;;1.20;0.40;;;19.00;43.40;;;;;;5031480;28;20108;-55
2022/01/07 01:19:28;;;;;;;0.73;0.25;;;19.00;43.60;;;;;;5044268;28;20056;-53
2022/01/07 01:21:56;;;;;;;2.00;0.20;;;19.00;43.70;;;;;;5044833;28;20054;-54
2022/01/07 01:24:23;;;;;;;5.43;0.50;;;18.90;43.70;;;;;;5040426;28;20125;-53
2022/01/07 01:26:50;;;;;;;3.15;0.10;;;18.80;43.70;;;;;;5034854;28;20072;-56
2022/01/07 01:29:20;;;;;;;3.40;0.38;;;18.80;43.90;;;;;;5034539;28;20051;-55
2022/01/07 01:31:47;;;;;;;0.95;0.20;;;18.80;43.90;;;;;;5036828;28;20045;-57
2022/01/07 01:34:14;;;;;;;2.92;0.20;;;18.70;44.00;;;;;;5036882;28;20421;-57
2022/01/07 01:36:42;;;;;;;0.73;0.17;;;18.70;44.10;;;;;;5037743;28;20096;-51
2022/01/07 01:39:10;;;;;;;1.05;0.20;;;18.70;44.20;;;;;;5035654;28;20038;-51
2022/01/07 01:41:37;;;;;;;1.15;0.28;;;18.70;44.30;;;;;;5031076;28;20084;-51
2022/01/07 01:44:05;;;;;;;2.25;0.30;;;18.60;44.50;;;;;;5033172;28;20551;-56
2022/01/07 01:46:31;;;;;;;0.55;0.20;;;18.60;44.60;;;;;;5034312;28;20095;-54
2022/01/07 01:48:58;;;;;;;1.63;0.20;;;18.60;44.70;;;;;;5033763;28;20052;-55
2022/01/07 01:51:26;;;;;;;0.28;0.10;;;18.60;44.70;;;;;;5033932;28;20552;-52
2022/01/07 01:53:54;;;;;;;4.00;0.40;;;18.60;44.80;;;;;;5033771;28;20042;-53
2022/01/07 01:56:21;;;;;;;1.08;0.30;;;18.50;44.80;;;;;;5034543;28;20047;-57
2022/01/07 01:58:48;;;;;;;0.90;0.20;;;18.50;44.90;;;;;;5031033;28;20057;-57
2022/01/07 02:01:15;;;;;;;1.17;0.13;;;18.50;45.00;;;;;;5034054;28;20041;-53
2022/01/07 02:03:42;;;;;;;1.05;0.40;;;18.50;45.10;;;;;;5039596;28;20045;-57
2022/01/07 02:06:10;;;;;;;1.42;0.10;;;18.50;45.20;;;;;;5035772;28;20162;-59
2022/01/07 02:08:37;;;;;;;0.22;0.10;;;18.50;45.30;;;;;;5032613;28;20045;-57
2022/01/07 02:11:06;;;;;;;1.55;0.20;;;18.50;45.30;;;;;;5045688;28;20624;-57
2022/01/07 02:13:33;;;;;;;2.00;0.10;;;18.50;45.40;;;;;;5036588;28;20049;-56
2022/01/07 02:16:00;;;;;;;0.63;0.10;;;18.40;45.40;;;;;;5035373;28;20049;-57
2022/01/07 02:18:27;;;;;;;0.20;0.20;;;18.40;45.40;;;;;;5038888;28;20040;-54
2022/01/07 02:20:55;;;;;;;0.73;0.20;;;18.40;45.40;;;;;;5034325;28;20132;-57
2022/01/07 02:23:22;;;;;;;0.77;0.10;;;18.40;45.50;;;;;;5033620;28;20041;-57
2022/01/07 02:25:50;;;;;;;1.95;0.30;;;18.40;45.60;;;;;;5032131;28;20052;-56
2022/01/07 02:28:18;;;;;;;2.90;0.35;;;18.30;45.50;;;;;;5045386;28;20037;-58
2022/01/07 02:30:45;;;;;;;1.95;0.68;;;18.30;45.50;;;;;;5034122;28;20038;-57
2022/01/07 02:33:12;;;;;;;0.57;0.28;;;18.30;45.60;;;;;;5033401;28;20028;-56
2022/01/07 02:35:45;;;;;;;0.73;0.30;;;18.30;45.60;;;;;;5036547;28;20041;-57
2022/01/07 02:38:15;;;;;;;1.15;0.45;;;18.30;45.60;;;;;;5035185;28;20040;-58
2022/01/07 02:40:42;;;;;;;1.98;0.30;;;18.30;45.70;;;;;;5030330;28;20041;-58
2022/01/07 02:43:09;;;;;;;0.57;0.20;;;18.30;45.70;;;;;;5036874;28;20040;-57
2022/01/07 02:45:36;;;;;;;0.47;0.10;;;18.20;45.70;;;;;;5037934;28;20399;-56
2022/01/07 02:48:04;;;;;;;0.10;0.10;;;18.20;45.80;;;;;;5034205;28;20049;-57
2022/01/07 02:50:35;;;;;;;1.23;0.20;;;18.20;45.80;;;;;;5031207;28;20071;-57
2022/01/07 02:53:05;;;;;;;0.90;0.15;;;18.30;46.00;;;;;;5029472;28;20148;-56
2022/01/07 02:55:33;;;;;;;0.40;0.30;;;18.20;46.00;;;;;;5035745;28;20707;-57
2022/01/07 02:58:01;;;;;;;0.65;0.10;;;18.20;46.00;;;;;;5044085;28;20048;-58
2022/01/07 03:00:28;;;;;;;0.28;0.10;;;18.20;46.10;;;;;;5037650;28;20045;-56
2022/01/07 03:02:57;;;;;;;0.82;0.20;;;18.20;46.20;;;;;;5036595;28;20063;-57
2022/01/07 03:05:24;;;;;;;0.68;0.10;;;18.20;46.40;;;;;;5035520;28;20052;-57
2022/01/07 03:07:52;;;;;;;0.50;0.10;;;18.20;46.50;;;;;;5029808;28;20072;-57
2022/01/07 03:10:22;;;;;;;0.50;0.30;;;18.20;46.50;;;;;;5035201;28;20049;-57
2022/01/07 03:12:50;;;;;;;0.10;0.10;;;18.20;46.50;;;;;;5033959;28;20142;-57
2022/01/07 03:15:17;;;;;;;0.68;0.20;;;18.20;46.60;;;;;;5034836;28;20089;-57
2022/01/07 03:17:44;;;;;;;1.13;0.17;;;18.20;46.60;;;;;;5035168;28;20042;-58
2022/01/07 03:20:15;;;;;;;0.45;0.10;;;18.20;46.70;;;;;;5032001;28;20494;-57
2022/01/07 03:22:43;;;;;;;0.85;0.22;;;18.10;46.60;;;;;;5029810;28;20041;-58
2022/01/07 03:25:10;;;;;;;1.75;0.20;;;18.10;46.60;;;;;;5032777;28;20057;-52
2022/01/07 03:27:38;;;;;;;0.40;0.30;;;18.10;46.60;;;;;;5037288;28;20061;-57
2022/01/07 03:30:09;;;;;;;3.83;0.20;;;18.10;46.70;;;;;;5033238;28;20044;-54
2022/01/07 03:32:36;;;;;;;0.40;0.10;;;18.10;46.80;;;;;;5030412;28;20492;-56
2022/01/07 03:35:04;;;;;;;1.77;0.17;;;18.10;46.80;;;;;;5032321;28;20033;-53
2022/01/07 03:37:31;;;;;;;1.02;0.10;;;18.10;46.90;;;;;;5041465;28;20392;-56
2022/01/07 03:39:58;;;;;;;1.20;0.10;;;18.10;46.90;;;;;;5034637;28;20041;-55
2022/01/07 03:42:25;;;;;;;0.10;0.10;;;18.10;46.80;;;;;;5034434;28;20041;-58
2022/01/07 03:44:52;;;;;;;0.40;0.10;;;18.10;46.90;;;;;;5034585;28;20049;-58
2022/01/07 03:47:20;;;;;;;1.15;0.10;;;18.10;46.80;;;;;;5034305;28;20041;-56
2022/01/07 03:49:47;;;;;;;0.52;0.20;;;18.10;46.80;;;;;;5030185;28;20045;-57
2022/01/07 03:52:14;;;;;;;1.90;0.10;;;18.10;46.80;;;;;;5034699;28;20131;-58
2022/01/07 03:54:41;;;;;;;0.30;0.10;;;18.10;46.80;;;;;;5039335;28;20045;-57
2022/01/07 03:57:09;;;;;;;0.30;0.10;;;18.10;46.80;;;;;;5035102;28;20040;-57
2022/01/07 03:59:36;;;;;;;0.45;0.10;;;18.10;46.80;;;;;;5031413;28;20043;-57
2022/01/07 04:02:04;;;;;;;2.72;0.85;;;18.00;46.70;;;;;;5031180;28;20037;-52
2022/01/07 04:04:32;;;;;;;0.30;0.10;;;18.10;46.80;;;;;;5031159;28;20038;-57
2022/01/07 04:06:59;;;;;;;2.83;0.10;;;18.10;46.80;;;;;;5031036;28;20139;-57
2022/01/07 04:09:26;;;;;;;0.10;0.08;;;18.10;46.80;;;;;;5036478;28;20047;-57
2022/01/07 04:11:53;;;;;;;1.45;0.10;;;18.10;46.90;;;;;;5029255;28;20080;-57
2022/01/07 04:14:20;;;;;;;1.08;0.10;;;18.00;46.90;;;;;;5028824;28;20047;-59
2022/01/07 04:16:47;;;;;;;0.28;0.03;;;18.00;46.90;;;;;;5029205;28;20418;-57
2022/01/07 04:19:14;;;;;;;0.63;0.10;;;18.10;46.90;;;;;;5036875;28;20037;-59
2022/01/07 04:21:43;;;;;;;0.75;0.10;;;18.10;46.80;;;;;;5033719;28;20042;-58
2022/01/07 04:24:10;;;;;;;1.40;0.10;;;18.10;46.90;;;;;;5031214;28;20037;-59
2022/01/07 04:26:38;;;;;;;1.20;0.10;;;18.00;46.80;;;;;;5032359;28;20147;-59
2022/01/07 04:29:05;;;;;;;2.63;0.50;;;18.00;46.70;;;;;;5045494;28;20044;-57
2022/01/07 04:31:32;;;;;;;0.52;0.10;;;18.00;46.70;;;;;;5034816;28;20043;-59
2022/01/07 04:33:59;;;;;;;0.20;0.10;;;18.00;46.70;;;;;;5038806;28;20426;-59
2022/01/07 04:36:26;;;;;;;0.82;0.30;;;18.00;46.70;;;;;;5043120;28;20033;-59
2022/01/07 04:38:54;;;;;;;1.00;0.10;;;18.00;46.70;;;;;;5038108;28;20037;-56
2022/01/07 04:41:21;;;;;;;0.30;0.20;;;18.10;46.70;;;;;;5034486;28;20047;-58
2022/01/07 04:43:48;;;;;;;0.47;0.30;;;18.00;47.10;;;;;;5034768;28;20517;-58
2022/01/07 04:46:16;;;;;;;0.80;0.10;;;18.00;46.60;;;;;;5035774;28;20045;-58
2022/01/07 04:48:43;;;;;;;0.65;0.00;;;18.00;46.60;;;;;;5034883;28;20045;-58
2022/01/07 04:51:10;;;;;;;2.50;0.10;;;18.00;46.60;;;;;;5040610;28;20041;-60
2022/01/07 04:53:37;;;;;;;2.50;0.15;;;18.10;46.60;;;;;;5034234;28;20355;-57
2022/01/07 04:56:05;;;;;;;1.25;0.03;;;18.00;47.20;;;;;;5038520;28;20065;-59
2022/01/07 04:58:32;;;;;;;0.63;0.10;;;18.00;46.60;;;;;;5032014;28;20382;-59
2022/01/07 05:01:00;;;;;;;0.50;0.17;;;18.00;46.60;;;;;;5040940;28;20045;-57
2022/01/07 05:03:27;;;;;;;1.30;0.10;;;18.00;46.70;;;;;;5035601;28;20040;-56
2022/01/07 05:06:03;;;;;;;1.02;0.10;;;18.00;46.70;;;;;;5043392;28;20045;-59
2022/01/07 05:08:31;;;;;;;0.32;0.20;;;18.00;46.70;;;;;;5035442;28;20047;-58
2022/01/07 05:10:58;;;;;;;1.30;0.03;;;18.00;46.70;;;;;;5036710;28;20071;-57
2022/01/07 05:13:27;;;;;;;1.65;0.10;;;18.00;46.70;;;;;;5038046;28;20497;-57
2022/01/07 05:15:54;;;;;;;2.67;0.20;;;18.00;46.70;;;;;;5039690;28;20129;-58
2022/01/07 05:18:21;;;;;;;0.65;0.20;;;18.00;46.70;;;;;;5040795;28;20710;-57
2022/01/07 05:20:48;;;;;;;0.35;0.10;;;18.00;46.70;;;;;;5036738;28;20076;-56
2022/01/07 05:23:15;;;;;;;0.38;0.20;;;18.00;46.70;;;;;;5039702;28;20175;-55
2022/01/07 05:25:42;;;;;;;0.20;0.10;;;18.00;47.30;;;;;;5032747;28;20042;-57
2022/01/07 05:28:09;;;;;;;1.13;0.10;;;18.00;46.80;;;;;;5044472;28;20070;-59
2022/01/07 05:30:38;;;;;;;0.47;0.10;;;18.00;46.80;;;;;;5037875;28;20051;-57
2022/01/07 05:33:05;;;;;;;0.10;0.00;;;18.00;46.80;;;;;;5037572;28;20033;-57
2022/01/07 05:35:32;;;;;;;0.82;0.10;;;18.00;46.80;;;;;;5035016;28;20040;-57
2022/01/07 05:37:59;;;;;;;0.10;0.00;;;18.00;46.80;;;;;;5031300;28;20045;-57
2022/01/07 05:40:26;;;;;;;0.57;0.10;;;18.00;46.80;;;;;;5030813;28;20046;-54
2022/01/07 05:42:53;;;;;;;1.17;0.10;;;18.00;46.90;;;;;;5038591;28;20057;-58
2022/01/07 05:45:20;;;;;;;0.73;0.10;;;18.00;46.90;;;;;;5040058;28;20053;-57
2022/01/07 05:47:48;;;;;;;0.25;0.13;;;17.90;46.90;;;;;;5042032;28;20049;-56
2022/01/07 05:50:16;;;;;;;3.13;0.35;;;18.00;47.00;;;;;;5033900;28;20042;-57
2022/01/07 05:52:43;;;;;;;0.40;0.10;;;17.90;47.00;;;;;;5044114;28;20049;-56
2022/01/07 05:55:10;;;;;;;1.02;0.35;;;18.00;47.60;;;;;;5034953;28;20053;-57
2022/01/07 05:57:37;;;;;;;0.25;0.10;;;17.90;47.00;;;;;;5036031;28;20151;-57
2022/01/07 06:00:08;;;;;;;0.30;0.10;;;17.90;47.00;;;;;;5037802;28;20124;-61
2022/01/07 06:02:39;;;;;;;1.67;0.55;;;18.00;47.10;;;;;;5035865;28;20041;-54
2022/01/07 06:05:08;;;;;;;0.10;0.00;;;17.90;47.10;;;;;;5032631;28;20045;-53
2022/01/07 06:07:35;;;;;;;1.02;0.10;;;17.90;47.10;;;;;;5032247;28;20248;-54
2022/01/07 06:10:02;;;;;;;0.30;0.10;;;17.90;47.20;;;;;;5041284;28;20045;-56
2022/01/07 06:12:30;;;;;;;3.00;0.00;;;17.90;47.20;;;;;;5037067;28;20034;-57
2022/01/07 06:14:57;;;;;;;1.02;0.25;;;18.00;47.20;;;;;;5035694;28;20044;-55
2022/01/07 06:17:24;;;;;;;0.50;0.13;;;17.90;47.20;;;;;;5034271;28;20112;-57
2022/01/07 06:19:52;;;;;;;0.10;0.08;;;17.90;47.20;;;;;;5045464;28;20092;-57
2022/01/07 06:22:20;;;;;;;1.08;0.10;;;17.90;47.20;;;;;;5031354;28;20038;-57
2022/01/07 06:24:47;;;;;;;0.08;0.00;;;18.00;47.20;;;;;;5037427;28;20403;-55
2022/01/07 06:27:14;;;;;;;0.20;0.00;;;18.00;47.10;;;;;;5033086;28;20498;-55
2022/01/07 06:29:41;;;;;;;0.73;0.10;;;17.90;47.10;;;;;;5032084;28;20267;-54
2022/01/07 06:32:09;;;;;;;0.73;0.10;;;17.90;47.10;;;;;;5032947;28;20037;-52
2022/01/07 06:34:36;;;;;;;1.90;0.10;;;18.00;47.10;;;;;;5034831;28;20045;-57
2022/01/07 06:37:04;;;;;;;0.63;0.10;;;17.90;47.00;;;;;;5034340;28;20072;-53
2022/01/07 06:39:34;;;;;;;0.77;0.00;;;18.00;47.10;;;;;;5034759;28;20140;-57
2022/01/07 06:42:02;;;;;;;0.20;0.00;;;18.00;47.10;;;;;;5037037;28;20068;-57
2022/01/07 06:44:29;;;;;;;0.50;0.30;;;17.90;47.00;;;;;;5035432;28;20536;-53
2022/01/07 06:46:56;;;;;;;0.75;0.10;;;18.00;47.00;;;;;;5030712;28;20045;-57
2022/01/07 06:49:24;;;;;;;0.40;0.10;;;17.90;47.00;;;;;;5033179;28;20049;-56
2022/01/07 06:51:53;;;;;;;0.63;0.10;;;18.00;47.00;;;;;;5038878;28;20452;-58
2022/01/07 06:54:21;;;;;;;0.10;0.00;;;18.00;47.00;;;;;;5035990;28;20041;-57
2022/01/07 06:56:50;;;;;;;0.32;0.10;;;18.00;47.00;;;;;;5033060;28;20042;-55
2022/01/07 06:59:17;;;;;;;0.25;0.10;;;18.00;47.00;;;;;;5033483;28;20528;-58
2022/01/07 07:01:47;;;;;;;1.60;0.10;;;18.00;47.00;;;;;;5035473;28;20045;-58
2022/01/07 07:04:14;;;;;;;0.20;0.00;;;18.00;47.00;;;;;;5034130;28;20037;-58
2022/01/07 07:06:42;;;;;;;0.65;0.10;;;18.00;47.00;;;;;;5036472;28;20049;-57
2022/01/07 07:09:09;;;;;;;1.85;0.10;;;18.00;47.00;;;;;;5033760;28;20037;-55
2022/01/07 07:11:36;;;;;;;1.42;0.10;;;18.00;46.90;;;;;;5033416;28;20114;-58
2022/01/07 07:14:05;;;;;;;0.52;0.10;;;18.00;46.90;;;;;;5031944;28;20086;-57
2022/01/07 07:16:32;;;;;;;0.65;0.10;;;18.00;46.90;;;;;;5033736;28;20042;-57
2022/01/07 07:18:59;;;;;;;0.60;0.28;;;18.00;46.90;;;;;;5044987;28;20055;-57
2022/01/07 07:21:27;;;;;;;0.40;0.10;;;18.00;46.90;;;;;;5032617;28;20060;-55
2022/01/07 07:23:54;;;;;;;1.63;0.10;;;18.00;47.00;;;;;;5034789;28;20501;-55
2022/01/07 07:26:21;;;;;;;0.63;0.45;;;18.00;47.00;;;;;;5033254;28;20788;-57
2022/01/07 07:28:48;;;;;;;0.35;0.10;;;18.00;46.90;;;;;;5030018;28;20529;-58
2022/01/07 07:31:18;;;;;;;1.13;0.10;;;18.00;46.90;;;;;;5033305;28;20643;-55
2022/01/07 07:34:20;;;;;;;0.45;0.38;;;18.00;46.90;;;;;;5038575;28;20467;-54
2022/01/07 07:36:47;;;;;;;0.20;0.10;;;18.00;46.90;;;;;;5034266;28;20069;-54
2022/01/07 07:39:16;;;;;;;0.22;0.22;;;18.00;46.90;;;;;;5035732;28;20037;-59
2022/01/07 07:41:44;;;;;;;1.52;0.20;;;18.00;46.90;;;;;;5038640;28;20049;-56
2022/01/07 07:44:11;;;;;;;0.10;0.00;;;18.00;47.50;;;;;;5035078;28;20094;-57
2022/01/07 07:46:41;;;;;;;0.63;0.52;;;18.00;46.90;;;;;;5030749;28;20048;-58
2022/01/07 07:49:09;;;;;;;1.20;0.20;;;18.00;46.90;;;;;;5037270;28;20079;-57
2022/01/07 07:51:37;;;;;;;0.47;0.00;;;18.00;46.90;;;;;;5041091;28;20090;-57
2022/01/07 07:54:05;;;;;;;0.50;0.10;;;18.00;46.90;;;;;;5042385;28;20036;-57
2022/01/07 07:56:32;;;;;;;0.43;0.10;;;18.00;46.90;;;;;;5031323;28;20077;-57
2022/01/07 07:58:59;;;;;;;0.52;0.03;;;18.00;46.90;;;;;;5030635;28;20060;-58
2022/01/07 08:01:27;;;;;;;2.47;0.10;;;18.00;46.90;;;;;;5031156;28;20037;-57
2022/01/07 08:03:56;;;;;;;0.20;0.00;;;18.00;46.90;;;;;;5030729;28;20428;-56
2022/01/07 08:06:23;;;;;;;1.27;0.28;;;18.00;46.90;;;;;;5036989;28;20043;-57
2022/01/07 08:08:51;;;;;;;1.15;0.40;;;18.00;46.90;;;;;;5032035;28;20049;-57
2022/01/07 08:11:18;;;;;;;0.95;0.10;;;18.00;46.90;;;;;;5029413;28;20029;-58
2022/01/07 08:16:30;;;;;;;0.13;0.05;;;18.00;46.90;;;;;;5034882;28;20068;-57
2022/01/07 08:19:00;;;;;;;0.57;0.30;;;18.00;47.00;;;;;;5033272;28;20069;-57
2022/01/07 08:21:29;;;;;;;0.30;0.10;;;18.00;46.90;;;;;;5033039;28;20072;-57
2022/01/07 08:23:57;;;;;;;0.40;0.10;;;18.00;46.90;;;;;;5034609;28;20044;-57
2022/01/07 08:26:25;;;;;;;0.88;0.10;;;18.00;46.90;;;;;;5033206;28;20037;-55
2022/01/07 08:28:56;;;;;;;0.93;0.10;;;18.00;46.90;;;;;;5029979;28;20422;-55
2022/01/07 08:34:53;;;;;;;0.30;0.08;;;18.00;46.90;;;;;;5032445;28;20100;-58
2022/01/07 08:37:01;;;;;;;0.30;0.05;;;18.00;47.00;;;;;;5035917;28;20045;-56
2022/01/07 08:39:29;;;;;;;0.32;0.00;;;18.00;47.00;;;;;;5034535;28;20547;-57
2022/01/07 08:41:56;;;;;;;0.82;0.00;;;18.00;47.60;;;;;;5032420;28;20037;-41
2022/01/07 08:44:26;;;;;;;0.57;0.00;;;18.00;47.00;;;;;;5032254;28;20517;-43
2022/01/07 08:46:53;;;;;;;1.67;0.10;;;18.00;47.10;;;;;;5029191;28;20053;-42
2022/01/07 08:49:22;;;;;;;0.40;0.10;;;18.10;47.30;;;;;;5034816;28;20050;-42
2022/01/07 08:51:49;;;;;;;0.50;0.10;;;18.10;47.30;;;;;;5031433;28;20056;-42
2022/01/07 08:54:16;;;;;;;8.65;0.10;;;18.10;47.40;;;;;;5035012;28;20034;-68
2022/01/07 08:56:44;;;;;;;2.13;0.10;;;18.10;47.60;;;;;;5031935;28;20053;-61
2022/01/07 08:59:11;;;;;;;0.57;0.10;;;18.10;47.80;;;;;;5032191;28;20037;-66
2022/01/07 09:01:39;;;;;;;6.15;0.10;;;18.10;48.00;;;;;;5043915;28;20036;-56
2022/01/07 09:04:06;;;;;;;7.82;0.10;;;18.10;48.10;;;;;;5038130;28;20044;-57
2022/01/07 09:06:35;;;;;;;1.70;0.10;;;18.20;48.20;;;;;;5038127;28;20048;-50
2022/01/07 09:09:04;;;;;;;0.77;0.38;;;18.20;48.20;;;;;;5034685;28;20051;-50
2022/01/07 09:11:32;;;;;;;5.65;0.08;;;18.20;48.30;;;;;;5037693;28;20102;-53
2022/01/07 09:13:59;;;;;;;4.43;0.52;;;18.20;48.60;;;;;;5045388;28;20037;-56
2022/01/07 09:16:27;;;;;;;1.55;0.50;;;18.20;48.70;;;;;;5048318;28;20447;-56
2022/01/07 09:18:55;;;;;;;4.88;0.10;;;18.20;48.80;;;;;;5037776;28;20103;-52
2022/01/07 09:21:22;;;;;;;1.80;0.10;;;18.30;48.80;;;;;;5038433;28;20139;-56
2022/01/07 09:23:51;;;;;;;1.50;0.00;;;18.30;49.10;;;;;;5044155;28;20040;-54
2022/01/07 09:26:18;;;;;;;2.20;0.10;;;18.30;48.70;;;;;;5039183;28;20471;-53
2022/01/07 09:28:45;;;;;;;0.68;0.10;;;18.40;48.70;;;;;;5042976;28;20040;-56
2022/01/07 09:31:14;;;;;;;1.70;0.38;;;18.40;48.70;;;;;;5037361;28;20150;-56
2022/01/07 09:33:41;;;;;;;0.65;0.22;;;18.40;48.60;;;;;;5037588;28;20041;-61
2022/01/07 09:36:08;;;;;;;0.20;0.10;;;18.40;48.50;;;;;;5043479;28;20040;-60
2022/01/07 09:38:35;;;;;;;4.88;0.15;;;18.40;48.50;;;;;;5035367;28;20041;-60
2022/01/07 09:41:05;;;;;;;0.88;0.10;;;18.40;48.40;;;;;;5041485;28;20044;-59
2022/01/07 09:43:34;;;;;;;1.30;0.75;;;18.50;48.50;;;;;;5037477;28;20045;-58
2022/01/07 09:46:02;;;;;;;0.57;0.10;;;18.50;48.40;;;;;;5037245;28;20056;-59
2022/01/07 09:48:30;;;;;;;2.85;0.10;;;18.50;48.40;;;;;;5039754;28;20041;-60
2022/01/07 09:50:57;;;;;;;1.42;0.00;;;18.50;48.30;;;;;;5035216;28;20698;-56
2022/01/07 09:53:26;;;;;;;1.10;0.10;;;18.50;48.30;;;;;;5038957;28;20043;-68
2022/01/07 09:55:54;;;;;;;2.47;0.10;;;18.60;48.40;;;;;;5040355;28;20052;-70
2022/01/07 09:58:23;;;;;;;7.63;0.35;;;18.50;48.30;;;;;;5037111;28;20069;-51
2022/01/07 10:00:50;;;;;;;3.15;0.85;;;18.60;48.40;;;;;;5036890;28;20041;-50
2022/01/07 10:03:18;;;;;;;3.22;0.20;;;18.60;48.40;;;;;;5040925;28;20141;-50
2022/01/07 10:05:48;;;;;;;0.98;0.20;;;18.60;48.40;;;;;;5039740;28;20513;-50
2022/01/07 10:08:22;;;;;;;1.73;0.10;;;18.70;48.30;;;;;;5039824;28;20364;-53
2022/01/07 10:11:09;;;;;;;1.40;0.10;;;18.70;48.20;;;;;;5034907;28;20037;-56
2022/01/07 10:13:37;;;;;;;3.08;0.20;;;18.80;48.20;;;;;;5041732;28;20137;-53
2022/01/07 10:16:17;;;;;;;0.25;0.10;;;18.80;48.00;;;;;;5040093;28;20050;-53
2022/01/07 10:18:44;;;;;;;1.15;0.10;;;18.80;47.70;;;;;;5041784;28;20041;-53
2022/01/07 10:21:12;;;;;;;2.00;0.10;;;18.90;47.60;;;;;;5035975;28;20053;-65
2022/01/07 10:23:41;;;;;;;2.00;0.10;;;18.80;47.30;;;;;;5037597;28;20083;-57
2022/01/07 10:26:17;;;;;;;1.88;0.25;;;18.90;47.60;;;;;;5045293;28;20037;-57
2022/01/07 10:28:47;;;;;;;0.82;0.10;;;19.00;47.80;;;;;;5042274;28;20037;-51
2022/01/07 10:31:21;;;;;;;4.47;0.10;;;19.00;47.80;;;;;;5041133;28;20047;-56
2022/01/07 10:33:49;;;;;;;1.20;0.45;;;19.00;47.80;;;;;;5043107;28;20049;-57
2022/01/07 10:36:19;;;;;;;2.08;0.10;;;19.00;47.70;;;;;;5041697;28;20092;-60
2022/01/07 10:38:50;;;;;;;0.17;0.05;;;19.10;47.60;;;;;;5033624;28;20052;-55
2022/01/07 10:41:19;;;;;;;1.55;0.28;;;19.10;47.50;;;;;;5028124;28;20486;-60
2022/01/07 10:43:48;;;;;;;1.95;0.10;;;19.20;47.50;;;;;;5033347;28;20073;-47
2022/01/07 10:46:31;;;;;;;0.63;0.10;;;19.20;47.40;;;;;;5033620;28;20057;-59
2022/01/07 10:49:00;;;;;;;2.58;0.20;;;19.30;47.30;;;;;;5039177;28;20349;-55
2022/01/07 10:51:28;;;;;;;0.68;0.00;;;19.30;47.30;;;;;;5036474;28;20046;-54
2022/01/07 10:53:57;;;;;;;0.73;0.10;;;19.30;47.10;;;;;;5034384;28;20532;-58
2022/01/07 10:56:34;;;;;;;0.35;0.13;;;19.40;47.10;;;;;;5033222;28;20048;-54
2022/01/07 10:59:05;;;;;;;0.57;0.10;;;19.40;47.00;;;;;;5032226;28;20516;-55
2022/01/07 11:01:44;;;;;;;1.75;0.17;;;19.50;46.90;;;;;;5032425;28;20591;-56
2022/01/07 11:04:15;;;;;;;0.20;0.10;;;19.50;46.80;;;;;;5032821;28;20041;-57
2022/01/07 11:06:44;;;;;;;2.55;0.10;;;19.60;46.80;;;;;;5043828;28;20061;-55
2022/01/07 11:09:13;;;;;;;1.38;0.10;;;19.70;46.70;;;;;;5035570;28;20042;-52
2022/01/07 11:11:46;;;;;;;0.28;0.10;;;19.70;46.50;;;;;;5032808;28;20045;-63
2022/01/07 11:14:18;;;;;;;1.35;0.10;;;19.70;46.50;;;;;;5044281;28;20509;-54
2022/01/07 11:16:45;;;;;;;5.15;0.40;;;19.80;46.40;;;;;;5042782;28;20052;-46
2022/01/07 11:19:18;;;;;;;1.40;1.00;;;19.80;46.30;;;;;;5036373;28;20053;-46
2022/01/07 11:21:51;;;;;;;6.50;0.17;;;19.70;46.10;;;;;;5041007;28;20056;-48
2022/01/07 11:24:40;;;;;;;2.47;0.10;;;19.70;46.60;;;;;;5036419;28;20037;-46
2022/01/07 11:27:08;;;;;;;0.75;0.10;;;19.70;46.00;;;;;;5034258;28;20067;-44
2022/01/07 11:29:39;;;;;;;9.10;0.40;;;19.70;46.00;;;;;;5039467;28;20041;-53
2022/01/07 11:32:39;;;;;;;3.78;0.40;;;19.70;47.30;;;;;;5038051;28;20132;-52
2022/01/07 11:35:45;;;;;;;6.78;0.47;;;19.80;48.20;;;;;;5002243;28;20049;-50
2022/01/07 11:38:34;;;;;;;10.35;0.10;;;19.80;48.50;;;;;;5001060;28;20038;-49
2022/01/07 11:41:09;;;;;;;10.95;0.28;;;19.90;49.00;;;;;;4998207;28;20072;-48
2022/01/07 11:43:39;;;;;;;10.02;0.30;;;19.90;49.30;;;;;;5000286;28;20042;-53
2022/01/07 11:46:31;;;;;;;9.20;0.85;;;20.00;49.50;;;;;;5002853;28;20083;-49
2022/01/07 11:49:01;;;;;;;10.88;0.38;;;20.10;49.40;;;;;;5003053;28;20609;-50
2022/01/07 11:51:40;;;;;;;4.72;0.30;;;20.10;49.60;;;;;;5002236;28;20529;-52
2022/01/07 11:54:13;;;;;;;4.80;1.35;;;20.10;49.60;;;;;;5002014;28;20073;-52
2022/01/07 11:56:41;;;;;;;2.92;0.30;;;20.10;49.70;;;;;;5001806;28;20482;-52
2022/01/07 11:59:14;;;;;;;3.80;0.22;;;20.20;49.80;;;;;;5002065;28;20502;-50
2022/01/07 12:01:43;;;;;;;3.33;0.17;;;20.20;49.90;;;;;;5002573;28;20530;-49
2022/01/07 12:04:27;;;;;;;5.90;2.25;;;20.20;49.80;;;;;;5003285;28;20056;-51
2022/01/07 12:06:55;;;;;;;4.35;0.30;;;20.30;49.70;;;;;;5030754;28;20136;-48
2022/01/07 12:09:29;;;;;;;1.80;0.10;;;20.30;49.60;;;;;;5043822;28;20127;-51
2022/01/07 12:11:59;;;;;;;5.45;1.13;;;20.30;49.50;;;;;;5042718;28;20041;-47
2022/01/07 12:14:28;;;;;;;3.85;0.20;;;20.40;49.40;;;;;;5031204;28;20057;-51
2022/01/07 12:16:59;;;;;;;3.13;0.10;;;20.40;49.30;;;;;;5032268;28;20045;-51
2022/01/07 12:20:00;;;;;;;0.45;0.10;;;20.50;49.30;;;;;;5031021;28;20529;-48
2022/01/07 12:22:27;;;;;;;2.00;0.10;;;20.50;49.10;;;;;;5033135;28;20141;-47
2022/01/07 12:24:59;;;;;;;2.00;0.40;;;20.50;49.10;;;;;;5035222;28;20034;-49
2022/01/07 12:27:27;;;;;;;1.02;0.38;;;20.50;48.80;;;;;;5032986;28;20037;-48
2022/01/07 12:29:57;;;;;;;1.98;0.30;;;20.60;48.70;;;;;;5035566;28;20086;-51
2022/01/07 12:32:32;;;;;;;3.63;0.10;;;20.60;48.50;;;;;;5031309;28;20045;-48
2022/01/07 12:35:00;;;;;;;0.95;0.38;;;20.60;48.40;;;;;;5038758;28;20045;-59
2022/01/07 12:37:27;;;;;;;2.08;0.45;;;20.60;48.90;;;;;;5037504;28;20059;-48
2022/01/07 12:39:56;;;;;;;5.20;0.17;;;20.60;49.20;;;;;;5035698;28;20124;-46
2022/01/07 12:42:24;;;;;;;1.25;0.30;;;20.70;49.60;;;;;;5035127;28;20382;-50
2022/01/07 12:44:57;;;;;;;1.27;0.22;;;20.70;49.80;;;;;;5031688;28;20502;-52
2022/01/07 12:47:26;;;;;;;1.48;0.52;;;20.70;49.90;;;;;;5030565;28;20044;-48
2022/01/07 12:49:56;;;;;;;3.55;0.22;;;20.70;49.70;;;;;;5043634;28;20045;-55
2022/01/07 12:52:26;;;;;;;1.80;0.10;;;20.80;49.80;;;;;;5038973;28;20046;-53
2022/01/07 12:54:56;;;;;;;1.48;0.50;;;20.80;49.60;;;;;;5035919;28;20049;-57
2022/01/07 12:57:25;;;;;;;2.30;0.98;;;20.80;49.70;;;;;;5041041;28;20052;-56
2022/01/07 13:00:07;;;;;;;1.40;0.17;;;20.80;49.50;;;;;;5037514;28;20041;-51